createdAt,value
2023-03-07T00:00:43.122Z,20.4
2023-03-07T00:06:19.900Z,20.4
2023-03-07T00:11:57.485Z,20.3
2023-03-07T00:17:35.559Z,20.3
2023-03-07T00:23:12.080Z,20.3
2023-03-07T00:29:05.774Z,20.3
2023-03-07T00:34:42.806Z,20.3
2023-03-07T00:40:34.482Z,20.3
2023-03-07T00:46:11.769Z,20.3
2023-03-07T00:51:49.017Z,20.3
2023-03-07T00:57:26.032Z,20.3
2023-03-07T01:02:47.393Z,20.3
2023-03-07T01:08:25.959Z,20.3
2023-03-07T01:14:02.766Z,20.2
2023-03-07T01:19:39.996Z,20.2
2023-03-07T01:25:17.542Z,20.2
2023-03-07T01:30:54.268Z,20.2
2023-03-07T01:36:47.655Z,20.2
2023-03-07T01:42:40.839Z,20.1
2023-03-07T01:48:33.128Z,20.1
2023-03-07T01:53:53.809Z,20.1
2023-03-07T01:59:16.768Z,20.1
2023-03-07T02:05:09.244Z,20.1
2023-03-07T02:11:00.649Z,20.1
2023-03-07T02:16:38.162Z,20.2
2023-03-07T02:22:30.267Z,20.3
2023-03-07T02:28:07.757Z,20.6
2023-03-07T02:34:00.275Z,20.9
2023-03-07T02:39:37.077Z,21.3
2023-03-07T02:45:28.911Z,21.8
2023-03-07T02:51:05.873Z,22.1
2023-03-07T02:56:27.802Z,22.6
2023-03-07T03:02:20.454Z,23
2023-03-07T03:07:43.170Z,23.5
2023-03-07T03:13:36.245Z,24.1
2023-03-07T03:19:29.773Z,24.6
2023-03-07T03:25:23.126Z,25.1
2023-03-07T03:31:15.741Z,25.6
2023-03-07T03:37:08.937Z,26.1
2023-03-07T03:43:02.021Z,26.4
2023-03-07T03:48:55.274Z,26.5
2023-03-07T03:54:47.732Z,26.6
2023-03-07T04:00:40.237Z,26.7
2023-03-07T04:06:32.998Z,26.8
2023-03-07T04:12:25.374Z,26.8
2023-03-07T04:18:19.213Z,26.8
2023-03-07T04:24:11.273Z,26.9
2023-03-07T04:29:48.587Z,26.9
2023-03-07T04:35:26.922Z,26.9
2023-03-07T04:41:18.557Z,26.9
2023-03-07T04:46:43.570Z,26.9
2023-03-07T04:52:05.951Z,26.9
2023-03-07T04:57:59.019Z,26.9
2023-03-07T05:03:22.650Z,26.9
2023-03-07T05:09:17.983Z,26.9
2023-03-07T05:15:09.992Z,26.9
2023-03-07T05:21:02.527Z,26.9
2023-03-07T05:26:55.610Z,26.9
2023-03-07T05:32:47.354Z,26.9
2023-03-07T05:38:39.561Z,27
2023-03-07T05:44:17.381Z,27.1
2023-03-07T05:50:11.429Z,27.1
2023-03-07T05:55:48.107Z,27.1
2023-03-07T06:01:41.812Z,27.1
2023-03-07T06:07:37.358Z,27
2023-03-07T06:13:30.736Z,26.9
2023-03-07T06:19:24.153Z,26.8
2023-03-07T06:25:02.139Z,26.7
2023-03-07T06:30:55.324Z,26.6
2023-03-07T06:36:49.707Z,26.6
2023-03-07T06:42:26.983Z,26.6
2023-03-07T06:48:06.934Z,26.5
2023-03-07T06:54:13.180Z,26.4
2023-03-07T07:00:07.297Z,26.4
2023-03-07T07:05:59.992Z,26.4
2023-03-07T07:11:52.580Z,26.3
2023-03-07T07:17:13.055Z,26.1
2023-03-07T07:22:50.445Z,26.1
2023-03-07T07:28:43.749Z,26
2023-03-07T07:34:37.298Z,25.9
2023-03-07T07:40:29.687Z,25.9
2023-03-07T07:46:22.571Z,25.8
2023-03-07T07:52:14.631Z,25.7
2023-03-07T07:58:06.750Z,25.6
2023-03-07T08:04:03.754Z,25.6
2023-03-07T08:09:56.595Z,25.5
2023-03-07T08:15:51.779Z,25.4
2023-03-07T08:21:45.326Z,25.3
2023-03-07T08:27:48.354Z,24.9
2023-03-07T08:33:41.941Z,24.4
2023-03-07T08:45:12.610Z,23.4
2023-03-07T08:51:06.501Z,23.1
2023-03-07T08:57:00.155Z,22.8
2023-03-07T09:02:53.350Z,22.6
2023-03-07T09:08:46.235Z,22.4
2023-03-07T09:14:48.609Z,22.3
2023-03-07T09:20:43.538Z,22.2
2023-03-07T09:26:35.995Z,22.2
2023-03-07T09:32:29.208Z,43.1
2023-03-07T09:38:05.371Z,40.3
2023-03-07T09:44:01.207Z,36.6
2023-03-07T09:49:54.312Z,34.4
2023-03-07T09:55:41.723Z,45.6
2023-03-07T10:01:50.384Z,41.8
2023-03-07T10:07:46.106Z,37.9
2023-03-07T10:13:38.932Z,35.6
2023-03-07T10:19:17.856Z,34.1
2023-03-07T10:24:56.091Z,32.8
2023-03-07T10:30:48.532Z,35.3
2023-03-07T10:37:06.678Z,46.9
2023-03-07T10:43:01.674Z,40.5
2023-03-07T10:49:26.490Z,36.9
2023-03-07T10:55:03.835Z,34.7
2023-03-07T11:01:00.464Z,47
2023-03-07T11:07:01.440Z,43.7
2023-03-07T11:12:38.705Z,38.8
2023-03-07T11:18:25.717Z,36.2
2023-03-07T11:24:01.960Z,34.4
2023-03-07T11:29:55.512Z,46.5
2023-03-07T11:35:48.204Z,46.4
2023-03-07T11:41:39.885Z,40.4
2023-03-07T11:47:17.999Z,37.4
2023-03-07T11:53:12.149Z,35.6
2023-03-07T11:59:04.318Z,34.3
2023-03-07T12:04:56.404Z,33.2
2023-03-07T12:10:34.278Z,32.3
2023-03-07T12:16:28.171Z,31.6
2023-03-07T12:22:19.982Z,30.8
2023-03-07T12:27:59.777Z,30.3
2023-03-07T12:33:54.388Z,29.6
2023-03-07T12:39:48.081Z,29.1
2023-03-07T12:45:10.122Z,28.6
2023-03-07T12:50:56.036Z,28.2
2023-03-07T13:02:11.155Z,27.4
2023-03-07T13:08:03.822Z,27.1
2023-03-07T13:13:58.592Z,26.8
2023-03-07T13:19:51.463Z,26.6
2023-03-07T13:25:44.222Z,26.3
2023-03-07T13:31:22.096Z,26.1
2023-03-07T13:37:15.129Z,25.9
2023-03-07T13:42:53.278Z,25.8
2023-03-07T13:48:47.828Z,25.6
2023-03-07T13:54:40.469Z,25.4
2023-03-07T14:00:35.972Z,25.3
2023-03-07T14:06:35.636Z,25.3
2023-03-07T14:12:34.899Z,25.1
2023-03-07T14:18:28.484Z,25.1
2023-03-07T14:24:21.644Z,24.9
2023-03-07T14:30:15.154Z,24.9
2023-03-07T14:35:53.622Z,24.8
2023-03-07T14:41:48.518Z,24.8
2023-03-07T14:47:42.039Z,24.7
2023-03-07T14:53:43.773Z,24.6
2023-03-07T14:59:45.494Z,24.6
2023-03-07T15:05:39.809Z,24.5
2023-03-07T15:11:33.073Z,24.4
2023-03-07T15:17:27.926Z,24.2
2023-03-07T15:22:50.409Z,24.1
2023-03-07T15:28:43.038Z,23.9
2023-03-07T15:34:20.223Z,23.8
2023-03-07T15:40:13.607Z,23.7
2023-03-07T15:45:35.664Z,23.6
2023-03-07T15:51:29.098Z,23.5
2023-03-07T15:57:21.545Z,23.4
2023-03-07T16:02:59.065Z,23.3
2023-03-07T16:08:21.422Z,23.2
2023-03-07T16:13:43.218Z,23.1
2023-03-07T16:19:35.655Z,23
2023-03-07T16:25:14.343Z,22.9
2023-03-07T16:31:07.249Z,22.8
2023-03-07T16:36:45.207Z,22.8
2023-03-07T16:42:06.724Z,22.8
2023-03-07T16:48:00.329Z,22.7
2023-03-07T16:54:01.413Z,22.7
2023-03-07T16:59:38.882Z,22.6
2023-03-07T17:05:17.717Z,22.6
2023-03-07T17:11:17.772Z,22.6
2023-03-07T17:17:10.713Z,22.6
2023-03-07T17:23:03.030Z,22.6
2023-03-07T17:28:56.509Z,22.6
2023-03-07T17:34:49.477Z,22.5
2023-03-07T17:40:43.006Z,22.5
2023-03-07T17:46:35.332Z,22.5
2023-03-07T17:52:28.510Z,22.5
2023-03-07T17:58:21.764Z,22.5
2023-03-07T18:04:17.744Z,22.4
2023-03-07T18:10:23.690Z,22.4
2023-03-07T18:16:17.295Z,22.4
2023-03-07T18:22:12.614Z,22.4
2023-03-07T18:27:37.056Z,22.4
2023-03-07T18:33:30.265Z,22.4
2023-03-07T18:39:24.036Z,22.4
2023-03-07T18:45:17.245Z,22.3
2023-03-07T18:51:10.020Z,22.4
2023-03-07T18:57:03.561Z,22.3
2023-03-07T19:02:41.179Z,22.3
2023-03-07T19:08:19.040Z,22.3
2023-03-07T19:14:14.611Z,22.3
2023-03-07T19:19:51.789Z,22.3
2023-03-07T19:25:44.150Z,22.3
2023-03-07T19:31:21.238Z,22.3
2023-03-07T19:37:00.244Z,22.3
2023-03-07T19:42:52.771Z,22.2
2023-03-07T19:48:45.945Z,22.1
2023-03-07T19:54:38.442Z,21.9
2023-03-07T20:00:31.205Z,21.8
2023-03-07T20:06:23.769Z,21.7
2023-03-07T20:12:33.228Z,21.6
2023-03-07T20:18:26.374Z,21.3
2023-03-07T20:24:19.665Z,21.4
2023-03-07T20:29:56.634Z,22.3
2023-03-07T20:35:50.528Z,23.6
2023-03-07T20:41:44.354Z,24.9
2023-03-07T20:47:38.029Z,26.4
2023-03-07T20:53:31.649Z,27.7
2023-03-07T20:59:24.926Z,28.6
2023-03-07T21:05:17.701Z,29.3
2023-03-07T21:10:58.049Z,29.8
2023-03-07T21:16:20.048Z,30.1
2023-03-07T21:21:57.332Z,30.3
2023-03-07T21:27:19.848Z,30.4
2023-03-07T21:32:57.283Z,30.6
2023-03-07T21:38:49.024Z,30.6
2023-03-07T21:44:10.812Z,30.7
2023-03-07T21:50:04.034Z,30.7
2023-03-07T21:55:55.676Z,30.8
2023-03-07T22:01:48.550Z,30.8
2023-03-07T22:07:25.236Z,30.8
2023-03-07T22:13:02.283Z,30.8
2023-03-07T22:18:24.668Z,30.8
2023-03-07T22:24:17.584Z,30.9
2023-03-07T22:29:39.590Z,30.9
2023-03-07T22:35:02.053Z,30.9
2023-03-07T22:40:39.046Z,30.9
2023-03-07T22:46:00.815Z,30.8
2023-03-07T22:51:22.102Z,30.8
2023-03-07T22:56:59.230Z,30.8
2023-03-07T23:02:52.175Z,30.8
2023-03-07T23:08:30.356Z,30.8
2023-03-07T23:14:23.376Z,30.8
2023-03-07T23:20:03.975Z,30.8
2023-03-07T23:25:42.779Z,30.8
2023-03-07T23:31:35.342Z,30.7
2023-03-07T23:37:28.843Z,30.6
2023-03-07T23:43:22.615Z,30.6
2023-03-07T23:49:03.140Z,30.6
2023-03-07T23:54:25.134Z,30.6
